createdAt,value
2019-03-06T00:02:24.804Z,8.63
2019-03-06T00:04:55.159Z,9.53
2019-03-06T00:07:25.504Z,8.40
2019-03-06T00:09:55.750Z,7.70
2019-03-06T00:12:26.254Z,7.33
2019-03-06T00:14:56.493Z,6.73
2019-03-06T00:17:26.902Z,8.47
2019-03-06T00:19:57.141Z,6.93
2019-03-06T00:22:27.452Z,7.33
2019-03-06T00:24:57.633Z,10.83
2019-03-06T00:27:27.795Z,10.17
2019-03-06T00:29:58.076Z,9.13
2019-03-06T00:32:29.461Z,8.00
2019-03-06T00:35:02.140Z,7.77
2019-03-06T00:37:32.420Z,10.77
2019-03-06T00:40:11.918Z,8.80
2019-03-06T00:42:45.977Z,9.43
2019-03-06T00:45:16.315Z,9.90
2019-03-06T00:47:46.477Z,9.07
2019-03-06T00:50:16.750Z,9.40
2019-03-06T00:52:46.961Z,10.87
2019-03-06T00:55:17.516Z,11.57
2019-03-06T00:57:48.788Z,10.97
2019-03-06T01:00:21.126Z,10.33
2019-03-06T01:02:51.388Z,10.43
2019-03-06T01:05:21.870Z,9.80
2019-03-06T01:07:52.042Z,9.93
2019-03-06T01:10:22.246Z,9.60
2019-03-06T01:12:52.491Z,10.00
2019-03-06T01:15:23.011Z,9.33
2019-03-06T01:17:53.794Z,10.60
2019-03-06T01:20:23.994Z,10.63
2019-03-06T01:22:54.209Z,10.67
2019-03-06T01:25:24.408Z,10.27
2019-03-06T01:27:54.574Z,11.07
2019-03-06T01:30:24.918Z,9.37
2019-03-06T01:33:01.180Z,9.20
2019-03-06T01:35:47.064Z,9.63
2019-03-06T01:38:51.299Z,10.13
2019-03-06T01:41:39.015Z,9.50
2019-03-06T01:44:13.640Z,9.77
2019-03-06T01:46:43.957Z,9.93
2019-03-06T01:49:14.307Z,9.10
2019-03-06T01:51:44.508Z,9.40
2019-03-06T01:54:14.729Z,10.67
2019-03-06T01:56:44.974Z,9.57
2019-03-06T01:59:15.273Z,9.23
2019-03-06T02:01:45.617Z,9.53
2019-03-06T02:04:15.865Z,8.80
2019-03-06T02:06:46.081Z,8.70
2019-03-06T02:09:18.225Z,10.57
2019-03-06T02:11:48.387Z,9.57
2019-03-06T02:14:18.634Z,11.00
2019-03-06T02:16:48.850Z,10.13
2019-03-06T02:19:19.137Z,9.57
2019-03-06T02:21:49.300Z,9.50
2019-03-06T02:24:19.532Z,9.03
2019-03-06T02:26:49.783Z,9.57
2019-03-06T02:29:19.838Z,9.30
2019-03-06T02:31:49.914Z,9.23
2019-03-06T02:34:21.021Z,8.97
2019-03-06T02:36:51.384Z,9.03
2019-03-06T02:39:21.664Z,10.40
2019-03-06T02:41:51.782Z,9.40
2019-03-06T02:44:22.007Z,9.87
2019-03-06T02:46:52.227Z,8.40
2019-03-06T02:49:22.501Z,8.63
2019-03-06T02:51:52.682Z,10.83
2019-03-06T02:54:23.007Z,9.37
2019-03-06T02:56:53.265Z,8.70
2019-03-06T02:59:48.438Z,9.07
2019-03-06T03:02:40.469Z,8.43
2019-03-06T03:05:17.444Z,9.87
2019-03-06T03:07:47.553Z,9.53
2019-03-06T03:10:17.784Z,8.70
2019-03-06T03:12:48.094Z,9.00
2019-03-06T03:15:18.568Z,9.27
2019-03-06T03:17:48.861Z,9.60
2019-03-06T03:20:19.102Z,9.97
2019-03-06T03:22:49.343Z,9.27
2019-03-06T03:25:19.543Z,9.50
2019-03-06T03:27:49.770Z,10.33
2019-03-06T03:30:19.955Z,9.00
2019-03-06T03:32:50.212Z,8.60
2019-03-06T03:35:21.441Z,9.63
2019-03-06T03:37:51.762Z,8.53
2019-03-06T03:40:21.946Z,9.47
2019-03-06T03:42:52.418Z,10.07
2019-03-06T03:45:22.598Z,9.33
2019-03-06T03:47:52.887Z,9.37
2019-03-06T03:50:23.146Z,9.20
2019-03-06T03:52:53.356Z,9.43
2019-03-06T03:55:23.488Z,9.40
2019-03-06T03:57:53.818Z,9.33
2019-03-06T04:00:24.207Z,8.70
2019-03-06T04:02:54.807Z,8.97
2019-03-06T04:05:25.076Z,8.13
2019-03-06T04:07:55.217Z,8.90
2019-03-06T04:10:25.472Z,8.67
2019-03-06T04:12:55.764Z,8.80
2019-03-06T04:15:26.198Z,10.10
2019-03-06T04:17:56.396Z,9.47
2019-03-06T04:20:26.652Z,9.80
2019-03-06T04:22:56.993Z,9.10
2019-03-06T04:25:27.266Z,8.57
2019-03-06T04:27:57.509Z,7.93
2019-03-06T04:30:27.788Z,9.67
2019-03-06T04:32:57.994Z,9.70
2019-03-06T04:35:28.190Z,9.67
2019-03-06T04:37:59.309Z,8.97
2019-03-06T04:40:29.510Z,9.10
2019-03-06T04:42:59.732Z,9.00
2019-03-06T04:45:29.905Z,10.37
2019-03-06T04:48:00.082Z,10.10
2019-03-06T04:50:30.470Z,10.67
2019-03-06T04:53:00.684Z,9.67
2019-03-06T04:55:30.856Z,9.87
2019-03-06T04:58:01.121Z,9.27
2019-03-06T05:00:31.330Z,10.73
2019-03-06T05:03:01.518Z,10.67
2019-03-06T05:05:31.774Z,11.33
2019-03-06T05:08:02.017Z,10.37
2019-03-06T05:10:32.213Z,10.40
2019-03-06T05:13:02.658Z,10.03
2019-03-06T05:15:32.885Z,10.23
2019-03-06T05:18:13.203Z,8.37
2019-03-06T05:20:43.870Z,10.10
2019-03-06T05:23:14.405Z,10.73
2019-03-06T05:25:44.719Z,10.47
2019-03-06T05:28:15.105Z,9.80
2019-03-06T05:30:45.536Z,11.50
2019-03-06T05:33:15.975Z,11.33
2019-03-06T05:36:07.483Z,10.77
2019-03-06T05:38:46.189Z,8.90
2019-03-06T05:41:16.672Z,8.57
2019-03-06T05:43:46.933Z,10.77
2019-03-06T05:46:17.102Z,11.27
2019-03-06T05:48:48.609Z,11.80
2019-03-06T05:51:18.810Z,10.23
2019-03-06T05:53:48.990Z,10.53
2019-03-06T05:56:19.359Z,10.80
2019-03-06T05:58:50.478Z,10.97
2019-03-06T06:01:20.995Z,11.57
2019-03-06T06:03:51.411Z,10.90
2019-03-06T06:06:21.566Z,11.10
2019-03-06T06:08:51.851Z,11.17
2019-03-06T06:11:21.966Z,9.77
2019-03-06T06:13:52.146Z,12.63
2019-03-06T06:16:22.440Z,11.70
2019-03-06T06:18:52.629Z,11.03
2019-03-06T06:21:47.606Z,10.97
2019-03-06T06:24:21.114Z,9.83
2019-03-06T06:26:51.264Z,11.73
2019-03-06T06:29:21.484Z,11.90
2019-03-06T06:31:51.790Z,11.50
2019-03-06T06:34:22.025Z,10.73
2019-03-06T06:36:52.107Z,11.83
2019-03-06T06:39:24.714Z,11.10
2019-03-06T06:41:54.986Z,10.87
2019-03-06T06:44:25.529Z,11.77
2019-03-06T06:46:55.805Z,10.93
2019-03-06T06:49:26.025Z,10.40
2019-03-06T06:52:34.395Z,10.40
2019-03-06T06:55:37.168Z,9.93
2019-03-06T06:58:45.084Z,9.93
2019-03-06T07:01:51.759Z,10.93
2019-03-06T07:05:20.044Z,16.07
2019-03-06T07:08:08.186Z,15.57
2019-03-06T07:10:56.938Z,14.43
2019-03-06T07:13:49.790Z,14.03
2019-03-06T07:16:38.955Z,18.20
2019-03-06T07:19:12.874Z,18.10
2019-03-06T07:22:03.953Z,18.17
2019-03-06T07:24:50.046Z,19.10
2019-03-06T07:27:28.685Z,14.30
2019-03-06T07:30:17.850Z,13.57
2019-03-06T07:33:16.128Z,13.83
2019-03-06T07:36:16.865Z,10.87
2019-03-06T07:38:47.232Z,12.70
2019-03-06T07:41:36.085Z,12.93
2019-03-06T07:44:31.255Z,13.13
2019-03-06T07:47:19.092Z,12.30
2019-03-06T07:49:58.207Z,14.10
2019-03-06T07:52:50.456Z,13.00
2019-03-06T07:55:48.639Z,11.90
2019-03-06T07:59:01.451Z,13.30
2019-03-06T08:01:33.893Z,12.90
2019-03-06T08:04:11.609Z,13.17
2019-03-06T08:06:46.743Z,13.67
2019-03-06T08:09:19.403Z,13.90
2019-03-06T08:12:07.681Z,12.83
2019-03-06T08:14:57.690Z,14.40
2019-03-06T08:17:55.636Z,13.87
2019-03-06T08:20:43.355Z,14.40
2019-03-06T08:23:49.952Z,14.17
2019-03-06T08:26:20.559Z,13.97
2019-03-06T08:28:52.094Z,15.27
2019-03-06T08:31:27.246Z,14.73
2019-03-06T08:33:57.516Z,14.13
2019-03-06T08:36:27.683Z,14.07
2019-03-06T08:38:57.928Z,15.17
2019-03-06T08:41:28.174Z,14.33
2019-03-06T08:43:59.370Z,14.43
2019-03-06T08:46:48.764Z,15.20
2019-03-06T08:49:43.969Z,14.63
2019-03-06T08:52:22.689Z,14.67
2019-03-06T08:55:24.143Z,15.97
2019-03-06T08:58:07.267Z,15.87
2019-03-06T09:01:04.521Z,19.10
2019-03-06T09:03:52.559Z,17.27
2019-03-06T09:06:41.758Z,16.00
2019-03-06T09:09:37.243Z,14.70
2019-03-06T09:12:35.626Z,15.73
2019-03-06T09:15:25.706Z,16.57
2019-03-06T09:18:11.795Z,14.90
2019-03-06T09:21:09.592Z,16.40
2019-03-06T09:24:05.888Z,16.33
2019-03-06T09:26:53.531Z,17.70
2019-03-06T09:29:32.866Z,16.77
2019-03-06T09:32:22.031Z,17.00
2019-03-06T09:35:20.415Z,16.40
2019-03-06T09:38:28.521Z,17.13
2019-03-06T09:41:23.408Z,15.77
2019-03-06T09:43:58.424Z,15.77
2019-03-06T09:46:48.546Z,16.23
2019-03-06T09:49:36.684Z,17.00
2019-03-06T09:52:37.932Z,17.70
2019-03-06T09:55:27.000Z,15.53
2019-03-06T09:58:12.475Z,17.33
2019-03-06T10:01:07.885Z,17.93
2019-03-06T10:04:03.298Z,19.07
2019-03-06T10:06:51.437Z,20.17
2019-03-06T10:09:36.392Z,20.83
2019-03-06T10:12:32.228Z,23.03
2019-03-06T10:15:10.741Z,24.03
2019-03-06T10:17:55.503Z,26.37
2019-03-06T10:20:25.718Z,25.63
2019-03-06T10:22:59.598Z,25.97
2019-03-06T10:25:30.596Z,24.97
2019-03-06T10:28:06.248Z,25.00
2019-03-06T10:30:32.256Z,25.27
2019-03-06T10:33:02.434Z,23.60
2019-03-06T10:35:32.566Z,20.77
2019-03-06T10:38:03.108Z,22.20
2019-03-06T10:40:33.382Z,22.63
2019-03-06T10:43:03.997Z,20.97
2019-03-06T10:45:41.365Z,23.27
2019-03-06T10:48:07.168Z,23.20
2019-03-06T10:50:37.697Z,24.83
2019-03-06T10:53:08.061Z,23.40
2019-03-06T10:55:38.228Z,21.63
2019-03-06T10:58:08.600Z,22.93
2019-03-06T11:00:47.432Z,20.20
2019-03-06T11:03:17.742Z,17.93
2019-03-06T11:05:48.861Z,16.70
2019-03-06T11:08:19.782Z,19.40
2019-03-06T11:10:50.116Z,18.13
2019-03-06T11:13:20.545Z,20.90
2019-03-06T11:15:55.742Z,17.63
2019-03-06T11:18:22.724Z,18.83
2019-03-06T11:20:52.973Z,18.23
2019-03-06T11:23:25.032Z,18.00
2019-03-06T11:25:56.708Z,19.77
2019-03-06T11:28:26.932Z,24.07
2019-03-06T11:30:57.976Z,24.17
2019-03-06T11:33:28.984Z,20.63
2019-03-06T11:36:00.296Z,20.90
2019-03-06T11:38:32.450Z,21.30
2019-03-06T11:41:03.111Z,22.73
2019-03-06T11:43:33.734Z,22.03
2019-03-06T11:46:03.806Z,21.33
2019-03-06T11:48:34.940Z,21.90
2019-03-06T11:51:05.530Z,18.80
2019-03-06T11:53:35.857Z,19.87
2019-03-06T11:56:07.454Z,21.97
2019-03-06T11:58:37.613Z,22.37
2019-03-06T12:01:13.297Z,21.90
2019-03-06T12:03:43.472Z,21.70
2019-03-06T12:06:13.753Z,22.70
2019-03-06T12:08:45.712Z,20.40
2019-03-06T12:11:15.786Z,17.57
2019-03-06T12:13:46.145Z,18.87
2019-03-06T12:16:19.476Z,19.30
2019-03-06T12:18:49.833Z,26.20
2019-03-06T12:21:20.166Z,25.33
2019-03-06T12:23:50.336Z,25.07
2019-03-06T12:26:20.452Z,25.37
2019-03-06T12:28:50.610Z,27.00
2019-03-06T12:31:21.373Z,25.90
2019-03-06T12:33:51.669Z,21.03
2019-03-06T12:36:21.902Z,22.30
2019-03-06T12:38:52.108Z,19.63
2019-03-06T12:41:22.652Z,17.00
2019-03-06T12:43:52.861Z,12.77
2019-03-06T12:46:24.838Z,10.87
2019-03-06T12:49:04.427Z,11.77
2019-03-06T12:51:36.004Z,11.23
2019-03-06T12:54:08.362Z,9.87
2019-03-06T12:56:38.509Z,11.50
2019-03-06T12:59:08.948Z,10.83
2019-03-06T13:01:39.336Z,8.47
2019-03-06T13:04:09.786Z,9.77
2019-03-06T13:06:39.981Z,12.10
2019-03-06T13:09:18.051Z,10.80
2019-03-06T13:11:48.423Z,10.93
2019-03-06T13:14:18.694Z,11.43
2019-03-06T13:16:48.940Z,12.17
2019-03-06T13:19:19.234Z,13.20
2019-03-06T13:21:49.417Z,12.17
2019-03-06T13:24:19.787Z,13.53
2019-03-06T13:26:50.063Z,13.13
2019-03-06T13:29:20.390Z,11.17
2019-03-06T13:31:50.603Z,12.70
2019-03-06T13:34:28.021Z,12.80
2019-03-06T13:36:58.118Z,12.37
2019-03-06T13:39:28.382Z,13.87
2019-03-06T13:41:58.687Z,13.87
2019-03-06T13:44:28.773Z,14.83
2019-03-06T13:46:58.951Z,15.57
2019-03-06T13:49:30.208Z,15.57
2019-03-06T13:52:00.432Z,15.37
2019-03-06T13:54:30.942Z,15.20
2019-03-06T13:57:03.037Z,15.23
2019-03-06T13:59:33.231Z,22.37
2019-03-06T14:02:03.409Z,18.63
2019-03-06T14:04:33.743Z,14.97
2019-03-06T14:07:04.069Z,13.47
2019-03-06T14:09:34.392Z,14.60
2019-03-06T14:12:04.963Z,13.50
2019-03-06T14:14:35.186Z,14.17
2019-03-06T14:17:06.463Z,29.63
2019-03-06T14:19:36.663Z,16.63
2019-03-06T14:22:07.028Z,15.60
2019-03-06T14:24:37.598Z,14.47
2019-03-06T14:27:08.847Z,15.90
2019-03-06T14:29:38.952Z,17.70
2019-03-06T14:32:14.793Z,17.10
2019-03-06T14:34:41.133Z,19.53
2019-03-06T14:37:11.417Z,20.57
2019-03-06T14:39:41.682Z,15.97
2019-03-06T14:42:11.869Z,16.57
2019-03-06T14:44:42.403Z,17.10
2019-03-06T14:47:13.413Z,16.30
2019-03-06T14:49:43.582Z,15.77
2019-03-06T14:52:14.672Z,14.37
2019-03-06T14:54:44.914Z,15.70
2019-03-06T14:57:15.608Z,15.60
2019-03-06T14:59:48.093Z,15.83
2019-03-06T15:02:29.697Z,16.60
2019-03-06T15:05:03.163Z,15.57
2019-03-06T15:07:33.605Z,16.97
2019-03-06T15:10:09.281Z,17.53
2019-03-06T15:12:52.352Z,17.63
2019-03-06T15:15:22.856Z,17.40
2019-03-06T15:17:56.857Z,19.37
2019-03-06T15:20:27.157Z,19.63
2019-03-06T15:22:57.691Z,20.30
2019-03-06T15:25:28.141Z,19.53
2019-03-06T15:27:58.398Z,18.83
2019-03-06T15:30:28.821Z,20.87
2019-03-06T15:32:59.134Z,20.63
2019-03-06T15:35:29.421Z,29.23
2019-03-06T15:37:59.701Z,103.53
2019-03-06T15:40:30.569Z,70.50
2019-03-06T15:43:00.730Z,51.97
2019-03-06T15:45:32.967Z,36.73
2019-03-06T15:48:04.248Z,35.07
2019-03-06T15:50:35.489Z,34.00
2019-03-06T15:53:06.633Z,34.40
2019-03-06T15:55:37.695Z,29.90
2019-03-06T15:58:08.246Z,29.73
2019-03-06T16:00:46.247Z,29.87
2019-03-06T16:03:11.070Z,30.57
2019-03-06T16:05:41.919Z,30.27
2019-03-06T16:08:13.060Z,31.33
2019-03-06T16:10:43.466Z,32.90
2019-03-06T16:13:13.692Z,32.23
2019-03-06T16:15:44.066Z,37.53
2019-03-06T16:18:14.335Z,35.40
2019-03-06T16:20:45.639Z,30.80
2019-03-06T16:23:16.854Z,31.23
2019-03-06T16:25:47.736Z,35.83
2019-03-06T16:28:20.083Z,35.97
2019-03-06T16:30:50.983Z,36.63
2019-03-06T16:33:24.051Z,36.90
2019-03-06T16:35:54.906Z,35.57
2019-03-06T16:38:27.162Z,37.70
2019-03-06T16:40:57.800Z,39.90
2019-03-06T16:43:31.086Z,38.93
2019-03-06T16:46:01.519Z,36.60
2019-03-06T16:48:32.602Z,44.57
2019-03-06T16:51:03.732Z,45.90
2019-03-06T16:53:35.925Z,42.40
2019-03-06T16:56:06.612Z,46.77
2019-03-06T16:58:37.592Z,40.90
2019-03-06T17:01:09.201Z,46.30
2019-03-06T17:03:40.165Z,49.07
2019-03-06T17:06:11.450Z,50.57
2019-03-06T17:08:43.670Z,39.23
2019-03-06T17:11:15.566Z,44.00
2019-03-06T17:13:46.805Z,40.73
2019-03-06T17:16:18.541Z,42.23
2019-03-06T17:18:50.092Z,40.07
2019-03-06T17:21:21.692Z,39.30
2019-03-06T17:23:53.549Z,41.80
2019-03-06T17:26:32.249Z,41.83
2019-03-06T17:29:12.369Z,44.30
2019-03-06T17:31:44.678Z,43.23
2019-03-06T17:34:16.486Z,44.70
2019-03-06T17:36:49.866Z,45.60
2019-03-06T17:39:21.965Z,47.63
2019-03-06T17:41:54.452Z,45.83
2019-03-06T17:44:26.239Z,51.13
2019-03-06T17:46:58.819Z,66.37
2019-03-06T17:49:30.579Z,53.10
2019-03-06T17:52:01.742Z,50.03
2019-03-06T17:54:33.486Z,42.53
2019-03-06T17:57:05.298Z,40.63
2019-03-06T17:59:36.725Z,42.63
2019-03-06T18:02:08.489Z,46.63
2019-03-06T18:04:39.998Z,40.53
2019-03-06T18:07:11.577Z,41.67
2019-03-06T18:09:43.448Z,38.40
2019-03-06T18:12:16.162Z,36.10
2019-03-06T18:14:48.040Z,39.77
2019-03-06T18:17:19.446Z,40.23
2019-03-06T18:19:51.269Z,44.73
2019-03-06T18:22:23.346Z,40.50
2019-03-06T18:24:54.987Z,43.17
2019-03-06T18:27:26.802Z,36.80
2019-03-06T18:29:58.596Z,37.73
2019-03-06T18:32:30.344Z,36.67
2019-03-06T18:35:02.381Z,38.47
2019-03-06T18:37:33.893Z,40.63
2019-03-06T18:40:05.674Z,50.27
2019-03-06T18:42:37.521Z,45.23
2019-03-06T18:45:12.723Z,42.57
2019-03-06T18:47:45.501Z,43.80
2019-03-06T18:50:18.756Z,47.47
2019-03-06T18:52:50.397Z,39.30
2019-03-06T18:55:22.977Z,38.03
2019-03-06T18:57:54.616Z,35.73
2019-03-06T19:00:26.453Z,37.53
2019-03-06T19:02:59.016Z,39.07
2019-03-06T19:05:30.935Z,46.10
2019-03-06T19:08:04.089Z,45.67
2019-03-06T19:10:35.997Z,41.20
2019-03-06T19:13:07.629Z,39.83
2019-03-06T19:15:38.853Z,40.50
2019-03-06T19:18:10.628Z,41.63
2019-03-06T19:20:42.459Z,41.10
2019-03-06T19:23:14.149Z,43.47
2019-03-06T19:25:46.366Z,38.30
2019-03-06T19:28:22.754Z,45.50
2019-03-06T19:30:55.274Z,40.30
2019-03-06T19:33:36.084Z,37.23
2019-03-06T19:36:10.147Z,32.10
2019-03-06T19:38:49.040Z,32.10
2019-03-06T19:41:32.012Z,33.37
2019-03-06T19:44:03.446Z,32.87
2019-03-06T19:46:45.955Z,34.03
2019-03-06T19:49:22.005Z,31.07
2019-03-06T19:52:03.422Z,32.47
2019-03-06T19:54:41.152Z,34.97
2019-03-06T19:57:18.232Z,36.83
2019-03-06T19:59:50.744Z,38.73
2019-03-06T20:02:23.507Z,43.77
2019-03-06T20:04:55.384Z,44.67
2019-03-06T20:07:27.390Z,46.67
2019-03-06T20:09:59.547Z,42.63
2019-03-06T20:12:31.243Z,42.20
2019-03-06T20:15:04.149Z,40.20
2019-03-06T20:17:36.037Z,38.67
2019-03-06T20:20:09.005Z,40.70
2019-03-06T20:22:40.280Z,40.73
2019-03-06T20:25:12.896Z,42.43
2019-03-06T20:27:45.615Z,38.70
2019-03-06T20:30:18.411Z,41.40
2019-03-06T20:32:51.175Z,38.23
2019-03-06T20:35:24.090Z,40.27
2019-03-06T20:37:55.917Z,38.03
2019-03-06T20:40:27.066Z,39.37
2019-03-06T20:43:02.223Z,36.37
2019-03-06T20:45:34.555Z,34.30
2019-03-06T20:48:06.260Z,34.97
2019-03-06T20:50:38.529Z,34.03
2019-03-06T20:53:11.876Z,43.63
2019-03-06T20:55:43.414Z,47.57
2019-03-06T20:58:15.968Z,48.73
2019-03-06T21:00:50.111Z,37.63
2019-03-06T21:03:24.805Z,40.13
2019-03-06T21:05:57.510Z,34.70
2019-03-06T21:08:31.004Z,33.43
2019-03-06T21:11:04.100Z,33.87
2019-03-06T21:13:35.834Z,30.73
2019-03-06T21:16:09.548Z,35.20
2019-03-06T21:18:42.366Z,31.50
2019-03-06T21:21:17.675Z,33.97
2019-03-06T21:23:51.416Z,32.43
2019-03-06T21:26:22.890Z,35.47
2019-03-06T21:28:54.798Z,32.90
2019-03-06T21:31:26.433Z,33.30
2019-03-06T21:33:58.687Z,32.87
2019-03-06T21:36:31.214Z,36.37
2019-03-06T21:39:02.562Z,41.30
2019-03-06T21:41:33.749Z,41.43
2019-03-06T21:44:05.393Z,41.40
2019-03-06T21:46:36.831Z,42.77
2019-03-06T21:49:07.688Z,43.67
2019-03-06T21:51:38.433Z,39.80
2019-03-06T21:54:08.809Z,39.77
2019-03-06T21:56:39.293Z,37.40
2019-03-06T21:59:10.409Z,35.27
2019-03-06T22:01:40.585Z,30.80
2019-03-06T22:04:10.803Z,29.50
2019-03-06T22:06:42.554Z,32.63
2019-03-06T22:09:15.028Z,30.90
2019-03-06T22:11:45.269Z,34.60
2019-03-06T22:14:15.433Z,30.33
2019-03-06T22:16:45.753Z,30.10
2019-03-06T22:19:16.009Z,34.23
2019-03-06T22:21:46.200Z,41.30
2019-03-06T22:24:16.472Z,42.47
2019-03-06T22:26:46.686Z,40.03
2019-03-06T22:29:16.968Z,40.13
2019-03-06T22:31:47.133Z,41.37
2019-03-06T22:34:17.342Z,39.00
2019-03-06T22:36:47.508Z,39.97
2019-03-06T22:39:17.688Z,34.87
2019-03-06T22:41:47.916Z,33.60
2019-03-06T22:44:18.137Z,34.70
2019-03-06T22:46:48.325Z,34.90
2019-03-06T22:49:18.531Z,33.33
2019-03-06T22:51:48.778Z,33.27
2019-03-06T22:54:19.625Z,42.30
2019-03-06T22:56:49.794Z,38.23
2019-03-06T22:59:19.915Z,38.97
2019-03-06T23:01:53.202Z,36.80
2019-03-06T23:04:23.340Z,33.23
2019-03-06T23:06:53.438Z,33.97
2019-03-06T23:09:23.657Z,33.20
2019-03-06T23:11:53.889Z,34.90
2019-03-06T23:14:24.034Z,34.03
2019-03-06T23:16:54.548Z,35.13
2019-03-06T23:19:24.813Z,41.13
2019-03-06T23:21:55.128Z,38.63
2019-03-06T23:24:25.484Z,34.50
2019-03-06T23:26:55.662Z,32.27
2019-03-06T23:29:26.010Z,31.43
2019-03-06T23:31:56.202Z,30.73
2019-03-06T23:34:26.410Z,30.83
2019-03-06T23:36:56.669Z,30.40
2019-03-06T23:39:26.946Z,31.70
2019-03-06T23:41:57.505Z,30.10
2019-03-06T23:44:27.706Z,30.97
2019-03-06T23:46:58.021Z,31.13
2019-03-06T23:49:28.274Z,31.53
2019-03-06T23:52:04.426Z,30.97
2019-03-06T23:54:34.885Z,29.33
2019-03-06T23:57:05.097Z,30.50
2019-03-06T23:59:35.440Z,31.57
